sensor_id;sensor_type;location;lat;lon;timestamp;P1;durP1;ratioP1;P2;durP2;ratioP2
52542;SDS011;38449;52.696;6.186;2023-05-10T00:01:59;15.80;;;10.73;;
52542;SDS011;38449;52.696;6.186;2023-05-10T00:04:26;16.67;;;10.50;;
52542;SDS011;38449;52.696;6.186;2023-05-10T00:06:53;14.63;;;9.50;;
52542;SDS011;38449;52.696;6.186;2023-05-10T00:09:19;13.70;;;8.88;;
52542;SDS011;38449;52.696;6.186;2023-05-10T00:11:46;12.20;;;8.43;;
52542;SDS011;38449;52.696;6.186;2023-05-10T00:14:12;9.80;;;7.57;;
52542;SDS011;38449;52.696;6.186;2023-05-10T00:16:38;8.18;;;6.70;;
52542;SDS011;38449;52.696;6.186;2023-05-10T00:19:04;12.52;;;7.38;;
52542;SDS011;38449;52.696;6.186;2023-05-10T00:21:30;7.70;;;6.15;;
52542;SDS011;38449;52.696;6.186;2023-05-10T00:23:57;9.10;;;6.13;;
52542;SDS011;38449;52.696;6.186;2023-05-10T00:26:24;10.52;;;7.13;;
52542;SDS011;38449;52.696;6.186;2023-05-10T00:28:50;8.90;;;6.78;;
52542;SDS011;38449;52.696;6.186;2023-05-10T00:31:16;9.95;;;6.20;;
52542;SDS011;38449;52.696;6.186;2023-05-10T00:33:42;8.15;;;6.35;;
52542;SDS011;38449;52.696;6.186;2023-05-10T00:36:09;7.65;;;6.00;;
52542;SDS011;38449;52.696;6.186;2023-05-10T00:38:35;8.23;;;6.22;;
52542;SDS011;38449;52.696;6.186;2023-05-10T00:41:01;10.98;;;6.47;;
52542;SDS011;38449;52.696;6.186;2023-05-10T00:43:28;9.70;;;6.00;;
52542;SDS011;38449;52.696;6.186;2023-05-10T00:45:54;6.10;;;5.28;;
52542;SDS011;38449;52.696;6.186;2023-05-10T00:48:20;7.60;;;5.00;;
52542;SDS011;38449;52.696;6.186;2023-05-10T00:50:47;6.55;;;4.78;;
52542;SDS011;38449;52.696;6.186;2023-05-10T00:53:14;6.45;;;4.85;;
52542;SDS011;38449;52.696;6.186;2023-05-10T00:55:40;5.20;;;4.40;;
52542;SDS011;38449;52.696;6.186;2023-05-10T00:58:07;6.40;;;4.82;;
52542;SDS011;38449;52.696;6.186;2023-05-10T01:00:33;6.13;;;4.50;;
52542;SDS011;38449;52.696;6.186;2023-05-10T01:03:01;5.20;;;4.38;;
52542;SDS011;38449;52.696;6.186;2023-05-10T01:05:28;6.43;;;4.80;;
52542;SDS011;38449;52.696;6.186;2023-05-10T01:07:54;5.38;;;4.50;;
52542;SDS011;38449;52.696;6.186;2023-05-10T01:10:21;6.40;;;5.13;;
52542;SDS011;38449;52.696;6.186;2023-05-10T01:12:47;6.63;;;4.80;;
52542;SDS011;38449;52.696;6.186;2023-05-10T01:15:14;5.25;;;3.92;;
52542;SDS011;38449;52.696;6.186;2023-05-10T01:17:42;4.82;;;4.18;;
52542;SDS011;38449;52.696;6.186;2023-05-10T01:20:11;4.93;;;4.07;;
52542;SDS011;38449;52.696;6.186;2023-05-10T01:28:26;5.22;;;4.05;;
52542;SDS011;38449;52.696;6.186;2023-05-10T01:36:16;4.75;;;3.90;;
52542;SDS011;38449;52.696;6.186;2023-05-10T01:38:53;5.07;;;4.10;;
52542;SDS011;38449;52.696;6.186;2023-05-10T01:44:16;5.88;;;4.50;;
52542;SDS011;38449;52.696;6.186;2023-05-10T01:46:53;5.78;;;3.83;;
52542;SDS011;38449;52.696;6.186;2023-05-10T01:49:31;5.45;;;3.88;;
52542;SDS011;38449;52.696;6.186;2023-05-10T01:52:09;5.80;;;4.10;;
52542;SDS011;38449;52.696;6.186;2023-05-10T01:54:42;5.45;;;3.85;;
52542;SDS011;38449;52.696;6.186;2023-05-10T01:57:19;6.38;;;4.45;;
52542;SDS011;38449;52.696;6.186;2023-05-10T01:59:48;5.78;;;4.43;;
52542;SDS011;38449;52.696;6.186;2023-05-10T02:02:17;5.13;;;3.80;;
52542;SDS011;38449;52.696;6.186;2023-05-10T02:04:46;5.45;;;4.38;;
52542;SDS011;38449;52.696;6.186;2023-05-10T02:07:14;6.15;;;4.22;;
52542;SDS011;38449;52.696;6.186;2023-05-10T02:09:44;4.75;;;3.80;;
52542;SDS011;38449;52.696;6.186;2023-05-10T02:12:14;6.75;;;4.90;;
52542;SDS011;38449;52.696;6.186;2023-05-10T02:14:42;5.60;;;4.15;;
52542;SDS011;38449;52.696;6.186;2023-05-10T02:17:10;5.47;;;4.63;;
52542;SDS011;38449;52.696;6.186;2023-05-10T02:19:39;5.75;;;4.43;;
52542;SDS011;38449;52.696;6.186;2023-05-10T02:22:07;6.18;;;4.63;;
52542;SDS011;38449;52.696;6.186;2023-05-10T02:24:35;7.25;;;4.72;;
52542;SDS011;38449;52.696;6.186;2023-05-10T02:27:03;6.55;;;4.90;;
52542;SDS011;38449;52.696;6.186;2023-05-10T02:29:31;7.07;;;4.80;;
52542;SDS011;38449;52.696;6.186;2023-05-10T02:31:58;7.68;;;4.93;;
52542;SDS011;38449;52.696;6.186;2023-05-10T02:34:25;11.63;;;6.40;;
52542;SDS011;38449;52.696;6.186;2023-05-10T02:36:53;10.48;;;5.13;;
52542;SDS011;38449;52.696;6.186;2023-05-10T02:39:21;10.38;;;5.45;;
52542;SDS011;38449;52.696;6.186;2023-05-10T02:41:49;11.07;;;5.97;;
52542;SDS011;38449;52.696;6.186;2023-05-10T02:44:18;8.68;;;5.38;;
52542;SDS011;38449;52.696;6.186;2023-05-10T02:46:46;13.65;;;6.10;;
52542;SDS011;38449;52.696;6.186;2023-05-10T02:49:12;10.48;;;5.43;;
52542;SDS011;38449;52.696;6.186;2023-05-10T02:51:40;10.25;;;6.78;;
52542;SDS011;38449;52.696;6.186;2023-05-10T02:54:11;9.93;;;5.40;;
52542;SDS011;38449;52.696;6.186;2023-05-10T02:56:43;8.93;;;5.25;;
52542;SDS011;38449;52.696;6.186;2023-05-10T02:59:14;12.48;;;5.40;;
52542;SDS011;38449;52.696;6.186;2023-05-10T03:01:41;10.55;;;5.78;;
52542;SDS011;38449;52.696;6.186;2023-05-10T03:04:07;11.13;;;6.05;;
52542;SDS011;38449;52.696;6.186;2023-05-10T03:06:33;10.00;;;5.60;;
52542;SDS011;38449;52.696;6.186;2023-05-10T03:09:00;9.27;;;5.55;;
52542;SDS011;38449;52.696;6.186;2023-05-10T03:11:31;8.13;;;5.90;;
52542;SDS011;38449;52.696;6.186;2023-05-10T03:16:41;9.25;;;6.20;;
52542;SDS011;38449;52.696;6.186;2023-05-10T03:19:26;15.27;;;7.78;;
52542;SDS011;38449;52.696;6.186;2023-05-10T03:21:59;11.98;;;7.57;;
52542;SDS011;38449;52.696;6.186;2023-05-10T03:24:29;9.65;;;6.10;;
52542;SDS011;38449;52.696;6.186;2023-05-10T03:26:56;6.78;;;5.30;;
52542;SDS011;38449;52.696;6.186;2023-05-10T03:29:28;6.32;;;4.53;;
52542;SDS011;38449;52.696;6.186;2023-05-10T03:31:59;8.15;;;5.20;;
52542;SDS011;38449;52.696;6.186;2023-05-10T03:34:25;6.13;;;4.72;;
52542;SDS011;38449;52.696;6.186;2023-05-10T03:36:52;8.32;;;4.43;;
52542;SDS011;38449;52.696;6.186;2023-05-10T03:39:18;8.18;;;5.53;;
52542;SDS011;38449;52.696;6.186;2023-05-10T03:41:45;9.43;;;5.30;;
52542;SDS011;38449;52.696;6.186;2023-05-10T03:44:11;7.35;;;4.78;;
52542;SDS011;38449;52.696;6.186;2023-05-10T03:46:37;8.65;;;4.70;;
52542;SDS011;38449;52.696;6.186;2023-05-10T03:49:03;7.85;;;4.03;;
52542;SDS011;38449;52.696;6.186;2023-05-10T03:51:29;5.60;;;3.90;;
52542;SDS011;38449;52.696;6.186;2023-05-10T03:53:56;5.25;;;3.58;;
52542;SDS011;38449;52.696;6.186;2023-05-10T03:56:22;7.63;;;5.80;;
52542;SDS011;38449;52.696;6.186;2023-05-10T03:58:49;6.43;;;3.80;;
52542;SDS011;38449;52.696;6.186;2023-05-10T04:01:15;7.93;;;5.82;;
52542;SDS011;38449;52.696;6.186;2023-05-10T04:03:41;8.50;;;5.50;;
52542;SDS011;38449;52.696;6.186;2023-05-10T04:06:08;10.65;;;6.68;;
52542;SDS011;38449;52.696;6.186;2023-05-10T04:08:37;10.27;;;5.90;;
52542;SDS011;38449;52.696;6.186;2023-05-10T04:11:07;13.20;;;6.18;;
52542;SDS011;38449;52.696;6.186;2023-05-10T04:13:34;11.73;;;6.60;;
52542;SDS011;38449;52.696;6.186;2023-05-10T04:16:01;10.20;;;5.35;;
52542;SDS011;38449;52.696;6.186;2023-05-10T04:18:27;10.43;;;5.10;;
52542;SDS011;38449;52.696;6.186;2023-05-10T04:20:54;10.52;;;6.53;;
52542;SDS011;38449;52.696;6.186;2023-05-10T04:23:20;12.07;;;5.55;;
52542;SDS011;38449;52.696;6.186;2023-05-10T04:25:46;9.68;;;5.72;;
52542;SDS011;38449;52.696;6.186;2023-05-10T04:28:13;9.38;;;5.38;;
52542;SDS011;38449;52.696;6.186;2023-05-10T04:30:39;9.70;;;6.03;;
52542;SDS011;38449;52.696;6.186;2023-05-10T04:33:06;13.63;;;5.78;;
52542;SDS011;38449;52.696;6.186;2023-05-10T04:35:32;9.18;;;6.47;;
52542;SDS011;38449;52.696;6.186;2023-05-10T04:37:59;10.35;;;6.78;;
52542;SDS011;38449;52.696;6.186;2023-05-10T04:40:25;10.88;;;7.03;;
52542;SDS011;38449;52.696;6.186;2023-05-10T04:42:52;13.23;;;6.93;;
52542;SDS011;38449;52.696;6.186;2023-05-10T04:45:18;9.73;;;6.40;;
52542;SDS011;38449;52.696;6.186;2023-05-10T04:47:44;12.52;;;7.10;;
52542;SDS011;38449;52.696;6.186;2023-05-10T04:50:11;11.25;;;6.50;;
52542;SDS011;38449;52.696;6.186;2023-05-10T04:52:37;11.70;;;6.32;;
52542;SDS011;38449;52.696;6.186;2023-05-10T04:55:03;11.07;;;6.43;;
52542;SDS011;38449;52.696;6.186;2023-05-10T04:57:30;10.73;;;6.25;;
52542;SDS011;38449;52.696;6.186;2023-05-10T04:59:56;12.00;;;6.57;;
52542;SDS011;38449;52.696;6.186;2023-05-10T05:02:23;11.52;;;6.50;;
52542;SDS011;38449;52.696;6.186;2023-05-10T05:04:49;11.65;;;7.18;;
52542;SDS011;38449;52.696;6.186;2023-05-10T05:07:16;13.32;;;7.00;;
52542;SDS011;38449;52.696;6.186;2023-05-10T05:09:42;8.50;;;5.90;;
52542;SDS011;38449;52.696;6.186;2023-05-10T05:12:09;11.20;;;6.32;;
52542;SDS011;38449;52.696;6.186;2023-05-10T05:14:39;10.75;;;6.90;;
52542;SDS011;38449;52.696;6.186;2023-05-10T05:17:06;16.92;;;8.43;;
52542;SDS011;38449;52.696;6.186;2023-05-10T05:19:33;15.23;;;7.38;;
52542;SDS011;38449;52.696;6.186;2023-05-10T05:21:59;15.57;;;7.50;;
52542;SDS011;38449;52.696;6.186;2023-05-10T05:24:26;12.90;;;8.38;;
52542;SDS011;38449;52.696;6.186;2023-05-10T05:26:52;12.82;;;7.35;;
52542;SDS011;38449;52.696;6.186;2023-05-10T05:29:18;13.77;;;7.15;;
52542;SDS011;38449;52.696;6.186;2023-05-10T05:31:44;11.23;;;6.90;;
52542;SDS011;38449;52.696;6.186;2023-05-10T05:34:11;11.35;;;7.63;;
52542;SDS011;38449;52.696;6.186;2023-05-10T05:36:37;13.43;;;7.72;;
52542;SDS011;38449;52.696;6.186;2023-05-10T05:39:06;12.52;;;7.00;;
52542;SDS011;38449;52.696;6.186;2023-05-10T05:41:33;12.35;;;7.07;;
52542;SDS011;38449;52.696;6.186;2023-05-10T05:43:59;14.35;;;7.47;;
52542;SDS011;38449;52.696;6.186;2023-05-10T05:46:25;12.73;;;7.03;;
52542;SDS011;38449;52.696;6.186;2023-05-10T05:48:51;13.88;;;8.50;;
52542;SDS011;38449;52.696;6.186;2023-05-10T05:51:18;11.98;;;7.47;;
52542;SDS011;38449;52.696;6.186;2023-05-10T05:53:44;15.77;;;7.60;;
52542;SDS011;38449;52.696;6.186;2023-05-10T05:56:10;12.27;;;7.70;;
52542;SDS011;38449;52.696;6.186;2023-05-10T05:58:37;12.88;;;7.30;;
52542;SDS011;38449;52.696;6.186;2023-05-10T06:01:03;14.40;;;7.35;;
52542;SDS011;38449;52.696;6.186;2023-05-10T06:03:29;14.45;;;7.93;;
52542;SDS011;38449;52.696;6.186;2023-05-10T06:05:56;14.90;;;7.25;;
52542;SDS011;38449;52.696;6.186;2023-05-10T06:08:22;13.82;;;7.80;;
52542;SDS011;38449;52.696;6.186;2023-05-10T06:10:48;13.57;;;6.80;;
52542;SDS011;38449;52.696;6.186;2023-05-10T06:13:14;12.93;;;7.70;;
52542;SDS011;38449;52.696;6.186;2023-05-10T06:15:41;13.50;;;6.60;;
52542;SDS011;38449;52.696;6.186;2023-05-10T06:18:07;12.63;;;7.60;;
52542;SDS011;38449;52.696;6.186;2023-05-10T06:20:33;14.65;;;7.47;;
52542;SDS011;38449;52.696;6.186;2023-05-10T06:22:59;13.93;;;8.20;;
52542;SDS011;38449;52.696;6.186;2023-05-10T06:25:26;13.18;;;6.82;;
52542;SDS011;38449;52.696;6.186;2023-05-10T06:27:52;14.52;;;7.00;;
52542;SDS011;38449;52.696;6.186;2023-05-10T06:30:23;12.60;;;7.28;;
52542;SDS011;38449;52.696;6.186;2023-05-10T06:32:53;12.27;;;7.50;;
52542;SDS011;38449;52.696;6.186;2023-05-10T06:35:19;14.48;;;7.55;;
52542;SDS011;38449;52.696;6.186;2023-05-10T06:37:46;11.32;;;6.15;;
52542;SDS011;38449;52.696;6.186;2023-05-10T06:40:12;14.75;;;7.53;;
52542;SDS011;38449;52.696;6.186;2023-05-10T06:42:38;15.65;;;7.22;;
52542;SDS011;38449;52.696;6.186;2023-05-10T06:45:05;13.32;;;7.65;;
52542;SDS011;38449;52.696;6.186;2023-05-10T06:47:32;13.40;;;7.82;;
52542;SDS011;38449;52.696;6.186;2023-05-10T06:49:58;12.88;;;7.55;;
52542;SDS011;38449;52.696;6.186;2023-05-10T06:52:24;12.05;;;7.57;;
52542;SDS011;38449;52.696;6.186;2023-05-10T06:54:50;16.00;;;7.63;;
52542;SDS011;38449;52.696;6.186;2023-05-10T06:57:17;14.23;;;7.70;;
52542;SDS011;38449;52.696;6.186;2023-05-10T06:59:43;13.15;;;6.78;;
52542;SDS011;38449;52.696;6.186;2023-05-10T07:02:09;12.88;;;7.75;;
52542;SDS011;38449;52.696;6.186;2023-05-10T07:04:36;11.38;;;6.90;;
52542;SDS011;38449;52.696;6.186;2023-05-10T07:07:02;12.70;;;7.15;;
52542;SDS011;38449;52.696;6.186;2023-05-10T07:09:28;11.85;;;7.13;;
52542;SDS011;38449;52.696;6.186;2023-05-10T07:11:55;11.73;;;7.18;;
52542;SDS011;38449;52.696;6.186;2023-05-10T07:14:22;13.75;;;7.55;;
52542;SDS011;38449;52.696;6.186;2023-05-10T07:16:49;13.32;;;7.05;;
52542;SDS011;38449;52.696;6.186;2023-05-10T07:19:18;12.48;;;6.63;;
52542;SDS011;38449;52.696;6.186;2023-05-10T07:21:45;13.20;;;7.00;;
52542;SDS011;38449;52.696;6.186;2023-05-10T07:24:11;9.18;;;6.47;;
52542;SDS011;38449;52.696;6.186;2023-05-10T07:26:37;9.57;;;5.80;;
52542;SDS011;38449;52.696;6.186;2023-05-10T07:29:03;8.77;;;5.50;;
52542;SDS011;38449;52.696;6.186;2023-05-10T07:31:30;9.07;;;5.18;;
52542;SDS011;38449;52.696;6.186;2023-05-10T07:33:56;8.82;;;5.03;;
52542;SDS011;38449;52.696;6.186;2023-05-10T07:36:22;7.85;;;4.75;;
52542;SDS011;38449;52.696;6.186;2023-05-10T07:38:49;8.13;;;4.85;;
52542;SDS011;38449;52.696;6.186;2023-05-10T07:41:15;6.35;;;4.25;;
52542;SDS011;38449;52.696;6.186;2023-05-10T07:43:41;6.18;;;3.65;;
52542;SDS011;38449;52.696;6.186;2023-05-10T07:46:07;5.75;;;3.28;;
52542;SDS011;38449;52.696;6.186;2023-05-10T07:48:36;4.95;;;3.20;;
52542;SDS011;38449;52.696;6.186;2023-05-10T07:51:02;3.72;;;3.20;;
52542;SDS011;38449;52.696;6.186;2023-05-10T07:53:29;8.25;;;3.35;;
52542;SDS011;38449;52.696;6.186;2023-05-10T07:55:58;3.83;;;3.03;;
52542;SDS011;38449;52.696;6.186;2023-05-10T07:58:25;4.20;;;3.03;;
52542;SDS011;38449;52.696;6.186;2023-05-10T08:00:51;4.80;;;3.42;;
52542;SDS011;38449;52.696;6.186;2023-05-10T08:03:18;5.78;;;4.30;;
52542;SDS011;38449;52.696;6.186;2023-05-10T08:05:44;6.18;;;3.95;;
52542;SDS011;38449;52.696;6.186;2023-05-10T08:08:10;7.03;;;4.53;;
52542;SDS011;38449;52.696;6.186;2023-05-10T08:10:37;6.82;;;4.28;;
52542;SDS011;38449;52.696;6.186;2023-05-10T08:13:03;7.10;;;5.13;;
52542;SDS011;38449;52.696;6.186;2023-05-10T08:15:29;9.13;;;5.32;;
52542;SDS011;38449;52.696;6.186;2023-05-10T08:17:55;6.53;;;5.30;;
52542;SDS011;38449;52.696;6.186;2023-05-10T08:20:22;7.57;;;4.78;;
52542;SDS011;38449;52.696;6.186;2023-05-10T08:22:48;8.63;;;5.20;;
52542;SDS011;38449;52.696;6.186;2023-05-10T08:25:15;8.13;;;5.20;;
52542;SDS011;38449;52.696;6.186;2023-05-10T08:27:41;7.75;;;4.70;;
52542;SDS011;38449;52.696;6.186;2023-05-10T08:30:08;10.93;;;5.50;;
52542;SDS011;38449;52.696;6.186;2023-05-10T08:32:34;9.32;;;5.85;;
52542;SDS011;38449;52.696;6.186;2023-05-10T08:35:00;6.80;;;5.32;;
52542;SDS011;38449;52.696;6.186;2023-05-10T08:37:29;8.52;;;5.70;;
52542;SDS011;38449;52.696;6.186;2023-05-10T08:39:56;9.15;;;5.60;;
52542;SDS011;38449;52.696;6.186;2023-05-10T08:42:22;8.15;;;5.10;;
52542;SDS011;38449;52.696;6.186;2023-05-10T08:44:54;7.95;;;4.72;;
52542;SDS011;38449;52.696;6.186;2023-05-10T08:47:22;10.05;;;5.53;;
52542;SDS011;38449;52.696;6.186;2023-05-10T08:49:49;7.95;;;4.75;;
52542;SDS011;38449;52.696;6.186;2023-05-10T08:52:17;9.65;;;5.20;;
52542;SDS011;38449;52.696;6.186;2023-05-10T08:54:43;8.95;;;5.57;;
52542;SDS011;38449;52.696;6.186;2023-05-10T08:57:10;10.60;;;5.80;;
52542;SDS011;38449;52.696;6.186;2023-05-10T08:59:36;9.02;;;6.30;;
52542;SDS011;38449;52.696;6.186;2023-05-10T09:02:05;8.30;;;6.22;;
52542;SDS011;38449;52.696;6.186;2023-05-10T09:04:35;9.40;;;5.68;;
52542;SDS011;38449;52.696;6.186;2023-05-10T09:07:01;11.50;;;6.47;;
52542;SDS011;38449;52.696;6.186;2023-05-10T09:09:28;11.40;;;8.13;;
52542;SDS011;38449;52.696;6.186;2023-05-10T09:11:55;9.90;;;7.30;;
52542;SDS011;38449;52.696;6.186;2023-05-10T09:14:21;11.85;;;7.13;;
52542;SDS011;38449;52.696;6.186;2023-05-10T09:16:50;11.68;;;8.25;;
52542;SDS011;38449;52.696;6.186;2023-05-10T09:19:16;11.85;;;7.93;;
52542;SDS011;38449;52.696;6.186;2023-05-10T09:21:42;13.00;;;8.20;;
52542;SDS011;38449;52.696;6.186;2023-05-10T09:24:09;11.23;;;7.40;;
52542;SDS011;38449;52.696;6.186;2023-05-10T09:26:35;12.07;;;7.88;;
52542;SDS011;38449;52.696;6.186;2023-05-10T09:29:13;11.52;;;7.93;;
52542;SDS011;38449;52.696;6.186;2023-05-10T09:31:58;11.63;;;8.25;;
52542;SDS011;38449;52.696;6.186;2023-05-10T09:34:30;12.90;;;8.82;;
52542;SDS011;38449;52.696;6.186;2023-05-10T09:37:00;12.88;;;8.45;;
52542;SDS011;38449;52.696;6.186;2023-05-10T09:39:35;11.70;;;8.27;;
52542;SDS011;38449;52.696;6.186;2023-05-10T09:42:06;32.38;;;11.05;;
52542;SDS011;38449;52.696;6.186;2023-05-10T09:44:34;15.15;;;8.88;;
52542;SDS011;38449;52.696;6.186;2023-05-10T09:47:02;14.68;;;9.80;;
52542;SDS011;38449;52.696;6.186;2023-05-10T09:49:29;13.48;;;9.05;;
52542;SDS011;38449;52.696;6.186;2023-05-10T09:52:02;12.48;;;9.30;;
52542;SDS011;38449;52.696;6.186;2023-05-10T09:54:30;12.63;;;9.18;;
52542;SDS011;38449;52.696;6.186;2023-05-10T09:56:57;13.40;;;8.68;;
52542;SDS011;38449;52.696;6.186;2023-05-10T09:59:27;12.60;;;8.10;;
52542;SDS011;38449;52.696;6.186;2023-05-10T10:01:57;12.63;;;8.60;;
52542;SDS011;38449;52.696;6.186;2023-05-10T10:04:25;13.30;;;9.07;;
52542;SDS011;38449;52.696;6.186;2023-05-10T10:06:58;13.02;;;8.52;;
52542;SDS011;38449;52.696;6.186;2023-05-10T10:09:29;12.00;;;9.15;;
52542;SDS011;38449;52.696;6.186;2023-05-10T10:11:56;12.85;;;9.43;;
52542;SDS011;38449;52.696;6.186;2023-05-10T10:14:23;13.95;;;8.57;;
52542;SDS011;38449;52.696;6.186;2023-05-10T10:16:50;12.52;;;9.00;;
52542;SDS011;38449;52.696;6.186;2023-05-10T10:19:20;14.55;;;8.90;;
52542;SDS011;38449;52.696;6.186;2023-05-10T10:21:49;13.93;;;9.73;;
52542;SDS011;38449;52.696;6.186;2023-05-10T10:24:16;12.55;;;8.95;;
52542;SDS011;38449;52.696;6.186;2023-05-10T10:26:42;12.60;;;8.77;;
52542;SDS011;38449;52.696;6.186;2023-05-10T10:29:12;12.15;;;8.88;;
52542;SDS011;38449;52.696;6.186;2023-05-10T10:31:47;12.65;;;9.75;;
52542;SDS011;38449;52.696;6.186;2023-05-10T10:34:32;13.35;;;9.02;;
52542;SDS011;38449;52.696;6.186;2023-05-10T10:36:59;11.75;;;9.55;;
52542;SDS011;38449;52.696;6.186;2023-05-10T10:41:57;14.93;;;9.77;;
52542;SDS011;38449;52.696;6.186;2023-05-10T10:46:59;14.30;;;9.38;;
52542;SDS011;38449;52.696;6.186;2023-05-10T10:52:21;12.48;;;9.43;;
52542;SDS011;38449;52.696;6.186;2023-05-10T10:54:52;11.10;;;8.40;;
52542;SDS011;38449;52.696;6.186;2023-05-10T10:57:24;13.18;;;8.38;;
52542;SDS011;38449;52.696;6.186;2023-05-10T10:59:56;12.85;;;8.48;;
52542;SDS011;38449;52.696;6.186;2023-05-10T11:02:53;14.30;;;10.88;;
52542;SDS011;38449;52.696;6.186;2023-05-10T11:07:54;13.93;;;10.43;;
52542;SDS011;38449;52.696;6.186;2023-05-10T11:10:22;13.93;;;9.60;;
52542;SDS011;38449;52.696;6.186;2023-05-10T11:12:53;16.33;;;11.15;;
52542;SDS011;38449;52.696;6.186;2023-05-10T11:15:30;15.00;;;10.60;;
52542;SDS011;38449;52.696;6.186;2023-05-10T11:17:57;14.07;;;9.15;;
52542;SDS011;38449;52.696;6.186;2023-05-10T11:20:27;14.50;;;10.27;;
52542;SDS011;38449;52.696;6.186;2023-05-10T11:23:10;14.73;;;10.25;;
52542;SDS011;38449;52.696;6.186;2023-05-10T11:25:42;13.23;;;8.98;;
52542;SDS011;38449;52.696;6.186;2023-05-10T11:28:10;14.18;;;9.52;;
52542;SDS011;38449;52.696;6.186;2023-05-10T11:30:38;17.60;;;10.57;;
52542;SDS011;38449;52.696;6.186;2023-05-10T11:33:06;14.00;;;9.60;;
52542;SDS011;38449;52.696;6.186;2023-05-10T11:35:39;15.45;;;9.20;;
52542;SDS011;38449;52.696;6.186;2023-05-10T11:38:09;12.93;;;9.00;;
52542;SDS011;38449;52.696;6.186;2023-05-10T11:40:37;17.30;;;10.75;;
52542;SDS011;38449;52.696;6.186;2023-05-10T11:43:04;14.35;;;9.77;;
52542;SDS011;38449;52.696;6.186;2023-05-10T11:45:34;15.25;;;9.75;;
52542;SDS011;38449;52.696;6.186;2023-05-10T11:48:01;14.07;;;8.40;;
52542;SDS011;38449;52.696;6.186;2023-05-10T11:50:28;11.80;;;7.88;;
52542;SDS011;38449;52.696;6.186;2023-05-10T11:52:55;11.32;;;8.68;;
52542;SDS011;38449;52.696;6.186;2023-05-10T11:55:22;12.48;;;8.95;;
52542;SDS011;38449;52.696;6.186;2023-05-10T11:57:59;16.80;;;12.18;;
52542;SDS011;38449;52.696;6.186;2023-05-10T12:00:26;13.65;;;9.20;;
52542;SDS011;38449;52.696;6.186;2023-05-10T12:02:53;12.40;;;8.38;;
52542;SDS011;38449;52.696;6.186;2023-05-10T12:05:19;12.88;;;8.70;;
52542;SDS011;38449;52.696;6.186;2023-05-10T12:07:46;12.77;;;9.02;;
52542;SDS011;38449;52.696;6.186;2023-05-10T12:10:12;12.35;;;9.27;;
52542;SDS011;38449;52.696;6.186;2023-05-10T12:12:45;15.20;;;8.73;;
52542;SDS011;38449;52.696;6.186;2023-05-10T12:15:19;11.52;;;8.43;;
52542;SDS011;38449;52.696;6.186;2023-05-10T12:17:47;13.35;;;7.95;;
52542;SDS011;38449;52.696;6.186;2023-05-10T12:22:54;11.93;;;9.52;;
52542;SDS011;38449;52.696;6.186;2023-05-10T12:25:22;12.98;;;9.30;;
52542;SDS011;38449;52.696;6.186;2023-05-10T12:27:53;12.65;;;9.10;;
52542;SDS011;38449;52.696;6.186;2023-05-10T12:30:24;12.15;;;7.85;;
52542;SDS011;38449;52.696;6.186;2023-05-10T12:32:52;10.48;;;7.90;;
52542;SDS011;38449;52.696;6.186;2023-05-10T12:35:19;11.73;;;7.43;;
52542;SDS011;38449;52.696;6.186;2023-05-10T12:37:47;11.55;;;7.95;;
52542;SDS011;38449;52.696;6.186;2023-05-10T12:40:14;9.50;;;6.82;;
52542;SDS011;38449;52.696;6.186;2023-05-10T12:42:40;11.73;;;6.93;;
52542;SDS011;38449;52.696;6.186;2023-05-10T12:45:07;10.32;;;6.57;;
52542;SDS011;38449;52.696;6.186;2023-05-10T12:47:34;10.32;;;6.97;;
52542;SDS011;38449;52.696;6.186;2023-05-10T12:50:00;11.30;;;7.47;;
52542;SDS011;38449;52.696;6.186;2023-05-10T12:52:28;9.55;;;7.25;;
52542;SDS011;38449;52.696;6.186;2023-05-10T12:54:55;11.48;;;6.38;;
52542;SDS011;38449;52.696;6.186;2023-05-10T12:57:21;9.38;;;6.70;;
52542;SDS011;38449;52.696;6.186;2023-05-10T12:59:48;13.43;;;8.57;;
52542;SDS011;38449;52.696;6.186;2023-05-10T13:02:14;13.88;;;8.68;;
52542;SDS011;38449;52.696;6.186;2023-05-10T13:04:43;11.93;;;8.20;;
52542;SDS011;38449;52.696;6.186;2023-05-10T13:07:11;13.20;;;9.20;;
52542;SDS011;38449;52.696;6.186;2023-05-10T13:09:38;12.13;;;8.30;;
52542;SDS011;38449;52.696;6.186;2023-05-10T13:12:04;14.18;;;9.57;;
52542;SDS011;38449;52.696;6.186;2023-05-10T13:14:31;15.52;;;9.38;;
52542;SDS011;38449;52.696;6.186;2023-05-10T13:16:57;15.63;;;9.07;;
52542;SDS011;38449;52.696;6.186;2023-05-10T13:19:24;14.00;;;9.52;;
52542;SDS011;38449;52.696;6.186;2023-05-10T13:21:50;14.68;;;9.05;;
52542;SDS011;38449;52.696;6.186;2023-05-10T13:24:16;14.00;;;8.90;;
52542;SDS011;38449;52.696;6.186;2023-05-10T13:26:43;15.70;;;8.75;;
52542;SDS011;38449;52.696;6.186;2023-05-10T13:29:09;12.88;;;8.77;;
52542;SDS011;38449;52.696;6.186;2023-05-10T13:31:35;14.25;;;9.45;;
52542;SDS011;38449;52.696;6.186;2023-05-10T13:34:02;13.05;;;9.32;;
52542;SDS011;38449;52.696;6.186;2023-05-10T13:36:29;14.23;;;9.18;;
52542;SDS011;38449;52.696;6.186;2023-05-10T13:38:55;14.25;;;8.70;;
52542;SDS011;38449;52.696;6.186;2023-05-10T13:41:21;15.55;;;8.43;;
52542;SDS011;38449;52.696;6.186;2023-05-10T13:43:47;14.80;;;8.65;;
52542;SDS011;38449;52.696;6.186;2023-05-10T13:46:14;12.00;;;7.82;;
52542;SDS011;38449;52.696;6.186;2023-05-10T13:48:41;12.13;;;7.72;;
52542;SDS011;38449;52.696;6.186;2023-05-10T13:51:07;14.73;;;7.88;;
52542;SDS011;38449;52.696;6.186;2023-05-10T13:53:33;13.30;;;7.65;;
52542;SDS011;38449;52.696;6.186;2023-05-10T13:55:59;13.18;;;7.57;;
52542;SDS011;38449;52.696;6.186;2023-05-10T13:58:26;13.77;;;8.20;;
52542;SDS011;38449;52.696;6.186;2023-05-10T14:00:52;12.88;;;7.45;;
52542;SDS011;38449;52.696;6.186;2023-05-10T14:03:18;7.82;;;6.45;;
52542;SDS011;38449;52.696;6.186;2023-05-10T14:05:44;9.73;;;6.57;;
52542;SDS011;38449;52.696;6.186;2023-05-10T14:08:11;9.50;;;6.78;;
52542;SDS011;38449;52.696;6.186;2023-05-10T14:10:38;11.30;;;7.18;;
52542;SDS011;38449;52.696;6.186;2023-05-10T14:13:05;10.13;;;7.90;;
52542;SDS011;38449;52.696;6.186;2023-05-10T14:15:32;9.25;;;6.45;;
52542;SDS011;38449;52.696;6.186;2023-05-10T14:17:58;9.63;;;6.63;;
52542;SDS011;38449;52.696;6.186;2023-05-10T14:20:24;11.43;;;6.25;;
52542;SDS011;38449;52.696;6.186;2023-05-10T14:22:50;9.43;;;6.47;;
52542;SDS011;38449;52.696;6.186;2023-05-10T14:25:17;9.15;;;5.85;;
52542;SDS011;38449;52.696;6.186;2023-05-10T14:27:43;7.30;;;5.50;;
52542;SDS011;38449;52.696;6.186;2023-05-10T14:30:09;6.80;;;4.72;;
52542;SDS011;38449;52.696;6.186;2023-05-10T14:32:36;7.38;;;5.75;;
52542;SDS011;38449;52.696;6.186;2023-05-10T14:35:02;6.78;;;4.93;;
52542;SDS011;38449;52.696;6.186;2023-05-10T14:37:29;7.50;;;5.25;;
52542;SDS011;38449;52.696;6.186;2023-05-10T14:39:55;8.32;;;6.00;;
52542;SDS011;38449;52.696;6.186;2023-05-10T14:42:21;9.30;;;6.45;;
52542;SDS011;38449;52.696;6.186;2023-05-10T14:44:48;9.63;;;6.57;;
52542;SDS011;38449;52.696;6.186;2023-05-10T14:47:14;8.73;;;6.13;;
52542;SDS011;38449;52.696;6.186;2023-05-10T14:49:40;11.82;;;6.53;;
52542;SDS011;38449;52.696;6.186;2023-05-10T14:52:06;7.53;;;6.03;;
52542;SDS011;38449;52.696;6.186;2023-05-10T14:54:33;9.70;;;5.57;;
52542;SDS011;38449;52.696;6.186;2023-05-10T14:56:59;8.45;;;5.05;;
52542;SDS011;38449;52.696;6.186;2023-05-10T14:59:26;7.25;;;4.70;;
52542;SDS011;38449;52.696;6.186;2023-05-10T15:01:52;11.90;;;6.15;;
52542;SDS011;38449;52.696;6.186;2023-05-10T15:04:18;7.50;;;4.60;;
52542;SDS011;38449;52.696;6.186;2023-05-10T15:06:44;6.53;;;4.68;;
52542;SDS011;38449;52.696;6.186;2023-05-10T15:09:11;9.55;;;5.00;;
52542;SDS011;38449;52.696;6.186;2023-05-10T15:11:37;6.30;;;4.50;;